Portada
METAR-TAF:

METAR-TAF

Aeroports :

Rolla National Airport

Rolla, Missouri, Estats Units d'Amèrica

latitud: 38-07-55N, longitud: 091-45-55W, altitud: 350 m

Observació

L'informe es va fer fa 13 minuts, a les 18:34 UTC
Vent 11 kt del Sud/Sud-Est amb ràfegues de 19 kt
Temperatura 24°C
Humitat 74%
Pressió 1012 hPa
Visibilitat: 16.1 km
Cel ennuvolat a una alçada de 2900 ft
Cel ennuvolat a una alçada de 3600 ft
Cel cobert a una alçada de 5500 ft

METAR: KVIH 261834Z AUTO 16011G19KT 10SM BKN029 BKN036 OVC055 24/19 A2987 RMK AO2 T02440194

Hora: 13:47 (18:47 UTC)


TAF: manca

Observacions i pronòstics meteorològics de més de 4000 aeroports (METAR i TAF).

Les estacions disponibles són els punts grocs i vermells al mapa.

Posi el ratolí al punt desitjat per veure el nom de l'estació.

Feu clic per veure les observacions i els pronòstics meteorològics.

Per canviar el mapa: feu clic els botons verds amb una creu de color negre per apropar; al botó verd amb un guió per allunyar la imatge; o en les fletxes verdes per a mapes adjacents.


METAR-TAF: